Time;durP1;ratioP1;P1;durP2;ratioP2;P2;SDS_P1;SDS_P2;PMS_P1;PMS_P2;Temp;Humidity;BMP_temperature;BMP_pressure;BME280_temperature;BME280_humidity;BME280_pressure;Samples;Min_cycle;Max_cycle;Signal;HPM_P1;HPM_P2
2022/07/31 00:00:18;;;;;;;3.72;1.48;;;19.00;93.40;;;18.35;100.00;97824.78;4939757;29;20174;-64
2022/07/31 00:02:45;;;;;;;3.55;1.10;;;19.00;93.30;;;18.35;100.00;97815.09;4940053;28;20138;-64
2022/07/31 00:05:13;;;;;;;2.30;1.20;;;19.00;93.40;;;18.11;100.00;97827.31;4950294;28;20054;-64
2022/07/31 00:07:40;;;;;;;3.53;1.23;;;19.00;93.60;;;18.13;100.00;97828.06;4938104;28;20134;-64
2022/07/31 00:10:08;;;;;;;4.35;1.00;;;18.90;93.70;;;18.25;100.00;97824.59;4938593;28;20365;-64
2022/07/31 00:12:35;;;;;;;6.80;1.42;;;18.80;93.80;;;18.28;100.00;97824.38;4936558;28;20044;-63
2022/07/31 00:15:06;;;;;;;2.95;1.10;;;18.80;93.90;;;18.15;100.00;97826.16;4942865;28;20419;-64
2022/07/31 00:17:33;;;;;;;3.40;1.63;;;18.80;94.00;;;18.17;100.00;97827.72;4952022;28;20166;-64
2022/07/31 00:20:01;;;;;;;4.63;1.17;;;18.70;94.20;;;18.18;100.00;97821.56;4940046;28;20079;-64
2022/07/31 00:22:28;;;;;;;3.45;1.30;;;18.70;94.30;;;18.15;100.00;97815.66;4938727;28;20105;-64
2022/07/31 00:24:55;;;;;;;3.10;1.13;;;18.70;94.40;;;17.98;100.00;97822.91;4941292;28;20122;-64
2022/07/31 00:27:22;;;;;;;2.10;1.02;;;18.60;94.50;;;17.83;100.00;97817.88;4936349;28;20178;-64
2022/07/31 00:29:50;;;;;;;2.78;1.30;;;18.50;94.60;;;18.05;100.00;97822.50;4938678;28;20126;-64
2022/07/31 00:32:17;;;;;;;4.95;1.27;;;18.50;94.90;;;18.04;100.00;97815.56;4940677;28;20135;-64
2022/07/31 00:34:47;;;;;;;2.22;1.20;;;18.50;94.90;;;18.00;100.00;97814.13;4941050;28;20560;-64
2022/07/31 00:37:14;;;;;;;2.90;1.13;;;18.40;95.10;;;17.77;100.00;97819.94;4944406;29;20126;-64
2022/07/31 00:39:41;;;;;;;2.33;1.20;;;18.30;95.40;;;17.79;100.00;97817.22;4941793;28;20073;-64
2022/07/31 00:42:22;;;;;;;3.00;1.40;;;18.30;95.60;;;17.66;100.00;97819.84;4941922;28;20118;-64
2022/07/31 00:44:50;;;;;;;4.93;1.30;;;18.30;95.70;;;17.65;100.00;97818.16;4944939;28;20047;-64
2022/07/31 00:47:18;;;;;;;3.40;1.10;;;18.20;95.70;;;17.78;100.00;97820.78;4945643;28;20055;-64
2022/07/31 00:49:51;;;;;;;2.45;1.10;;;18.20;95.90;;;17.72;100.00;97829.94;4943479;28;20044;-64
2022/07/31 00:52:18;;;;;;;4.53;1.23;;;18.20;96.00;;;17.65;100.00;97817.31;4941947;28;20461;-64
2022/07/31 00:54:45;;;;;;;2.70;1.30;;;18.30;96.00;;;17.58;100.00;97813.41;4941822;28;20524;-64
2022/07/31 00:57:14;;;;;;;2.90;1.20;;;18.30;96.00;;;17.76;100.00;97809.53;4942780;28;20606;-65
2022/07/31 00:59:42;;;;;;;2.85;1.13;;;18.20;96.20;;;17.85;100.00;97810.75;4960084;28;20139;-64
2022/07/31 01:02:09;;;;;;;2.80;1.33;;;18.10;96.30;;;17.47;100.00;97807.13;4960215;28;20062;-64
2022/07/31 01:04:37;;;;;;;3.65;1.10;;;18.20;96.50;;;17.64;100.00;97813.84;4946619;28;20055;-64
2022/07/31 01:07:08;;;;;;;4.80;1.40;;;18.10;96.60;;;17.81;100.00;97810.09;4943602;28;20420;-64
2022/07/31 01:09:35;;;;;;;6.68;1.55;;;18.10;96.90;;;17.52;100.00;97814.69;4947195;28;20944;-65
2022/07/31 01:12:15;;;;;;;4.57;2.10;;;18.10;97.50;;;17.58;100.00;97810.78;4942661;28;20047;-63
2022/07/31 01:14:51;;;;;;;3.58;1.63;;;18.00;97.90;;;17.31;100.00;97822.19;4943755;28;20051;-63
2022/07/31 01:17:21;;;;;;;3.55;1.40;;;18.00;98.00;;;17.18;100.00;97823.94;4944266;28;20138;-64
2022/07/31 01:19:51;;;;;;;3.80;1.70;;;17.90;98.50;;;17.07;100.00;97819.41;4944474;28;20694;-63
2022/07/31 01:22:56;;;;;;;4.43;1.92;;;17.90;98.70;;;17.13;100.00;97819.00;4945050;28;20194;-63
2022/07/31 01:26:00;;;;;;;5.65;1.60;;;17.90;99.10;;;17.20;100.00;97815.03;4955860;28;20059;-64
2022/07/31 01:29:24;;;;;;;3.38;1.55;;;18.00;99.20;;;17.21;100.00;97806.22;4943074;28;20056;-64
2022/07/31 01:31:59;;;;;;;6.88;1.70;;;17.90;99.20;;;17.05;100.00;97816.88;4886120;29;20128;-64
2022/07/31 01:35:03;;;;;;;5.18;2.05;;;17.80;99.60;;;17.06;100.00;97812.44;4941202;28;20129;-63
2022/07/31 01:37:36;;;;;;;6.38;2.20;;;17.80;99.90;;;16.96;100.00;97811.38;4955508;28;20044;-64
2022/07/31 01:40:14;;;;;;;3.30;1.90;;;17.70;99.90;;;17.17;100.00;97809.97;4958366;28;20138;-64
2022/07/31 01:42:55;;;;;;;4.07;1.80;;;;;;;17.09;100.00;97805.25;4958362;28;20214;-64
2022/07/31 01:45:26;;;;;;;4.43;1.95;;;17.80;99.90;;;16.94;100.00;97803.59;4956333;28;20147;-64
2022/07/31 01:47:55;;;;;;;5.45;1.95;;;17.70;99.90;;;17.00;100.00;97803.22;4940808;28;20077;-64
2022/07/31 01:50:23;;;;;;;3.22;2.05;;;17.70;99.90;;;16.90;100.00;97802.13;4955858;28;20768;-64
2022/07/31 01:53:14;;;;;;;4.95;1.73;;;17.70;99.90;;;16.91;100.00;97809.91;4953650;28;20075;-63
2022/07/31 01:55:43;;;;;;;4.70;2.05;;;17.70;99.90;;;16.86;100.00;97808.53;4956940;28;20051;-64
2022/07/31 01:58:36;;;;;;;5.65;2.20;;;17.70;99.90;;;16.89;100.00;97808.31;4953561;28;20369;-64
2022/07/31 02:01:07;;;;;;;3.75;1.70;;;17.70;99.90;;;17.06;100.00;97808.06;4955548;28;20079;-63
2022/07/31 02:03:36;;;;;;;3.35;1.73;;;17.70;99.90;;;17.10;100.00;97808.69;4959497;28;20157;-64
2022/07/31 02:06:13;;;;;;;4.82;2.00;;;17.70;99.90;;;17.02;100.00;97803.97;4955015;28;20062;-64
2022/07/31 02:08:48;;;;;;;4.90;1.73;;;17.80;99.90;;;16.91;100.00;97804.66;4957853;28;20051;-64
2022/07/31 02:11:18;;;;;;;5.70;1.50;;;17.70;99.90;;;16.83;100.00;97798.22;4957951;28;20057;-64
2022/07/31 02:13:48;;;;;;;4.70;1.75;;;17.70;99.90;;;16.81;100.00;97800.97;4942543;28;20069;-64
2022/07/31 02:16:17;;;;;;;3.65;1.60;;;17.60;99.90;;;16.83;100.00;97799.09;4955949;28;20051;-64
2022/07/31 02:18:48;;;;;;;6.82;1.80;;;17.60;99.90;;;16.85;100.00;97799.78;4956246;28;20277;-64
2022/07/31 02:21:16;;;;;;;4.57;1.73;;;17.60;99.90;;;16.88;100.00;97797.00;4956368;28;20078;-64
2022/07/31 02:23:43;;;;;;;4.80;1.98;;;17.60;99.90;;;16.88;100.00;97791.75;4940126;28;20603;-64
2022/07/31 02:26:12;;;;;;;3.30;1.60;;;17.60;99.90;;;16.75;100.00;97790.00;4957322;28;20051;-64
2022/07/31 02:28:43;;;;;;;5.65;1.73;;;17.60;99.90;;;16.76;100.00;97795.13;4955615;28;20129;-64
2022/07/31 02:31:13;;;;;;;3.85;2.30;;;17.50;99.90;;;16.90;100.00;97794.25;4953899;28;20119;-64
2022/07/31 02:33:44;;;;;;;4.55;1.42;;;17.50;99.90;;;17.00;100.00;97782.25;4940431;28;20126;-64
2022/07/31 02:36:13;;;;;;;3.00;1.52;;;17.60;99.90;;;16.86;100.00;97791.00;4955118;28;20130;-64
2022/07/31 02:38:42;;;;;;;4.18;2.03;;;17.50;99.90;;;16.84;100.00;97792.06;4942114;28;20150;-63
2022/07/31 02:41:10;;;;;;;4.20;1.70;;;17.50;99.90;;;16.75;100.00;97788.19;4939483;28;20398;-64
2022/07/31 02:43:38;;;;;;;4.07;2.00;;;17.60;99.90;;;16.75;100.00;97788.19;4941031;28;20047;-64
2022/07/31 02:46:06;;;;;;;3.78;1.90;;;17.50;99.90;;;16.71;100.00;97787.53;4939876;28;20123;-64
2022/07/31 02:48:33;;;;;;;3.78;1.85;;;17.50;99.90;;;16.89;100.00;97790.78;4939150;28;20577;-64
2022/07/31 02:51:00;;;;;;;2.78;1.42;;;17.50;99.90;;;17.20;100.00;97769.63;4951003;28;20074;-63
2022/07/31 02:53:29;;;;;;;1.88;1.10;;;17.60;99.90;;;17.26;100.00;97772.63;4955806;28;20099;-64
2022/07/31 02:55:57;;;;;;;3.67;1.58;;;17.70;99.90;;;17.30;100.00;97771.50;4958071;28;20101;-64
2022/07/31 02:58:24;;;;;;;4.88;1.70;;;17.80;99.90;;;17.22;100.00;97765.06;4957565;28;20189;-64
2022/07/31 03:01:03;;;;;;;3.85;1.80;;;17.80;99.90;;;17.02;100.00;97779.53;4940187;28;20073;-64
2022/07/31 03:03:31;;;;;;;2.45;1.60;;;17.80;99.90;;;16.90;100.00;97786.38;4955291;28;20497;-65
2022/07/31 03:05:58;;;;;;;3.40;1.60;;;17.70;99.90;;;16.86;100.00;97784.94;4940883;28;20392;-64
2022/07/31 03:08:26;;;;;;;4.93;1.88;;;17.60;99.90;;;17.01;100.00;97777.81;4940846;29;20204;-64
2022/07/31 03:10:54;;;;;;;4.53;1.77;;;17.70;99.90;;;17.15;100.00;97772.50;4942542;28;20066;-64
2022/07/31 03:13:24;;;;;;;4.38;2.13;;;17.70;99.90;;;17.19;100.00;97774.00;4942069;28;20043;-64
2022/07/31 03:15:53;;;;;;;4.80;1.75;;;17.80;99.90;;;17.29;100.00;97776.88;4940506;28;20057;-64
2022/07/31 03:18:24;;;;;;;4.15;1.55;;;17.80;99.90;;;17.48;100.00;97768.59;4960905;28;20050;-64
2022/07/31 03:20:52;;;;;;;3.25;1.88;;;17.80;99.90;;;17.39;100.00;97779.72;4941734;28;20130;-64
2022/07/31 03:23:21;;;;;;;3.22;1.60;;;17.90;99.90;;;17.48;100.00;97769.44;4941389;28;20074;-64
2022/07/31 03:25:50;;;;;;;3.97;1.92;;;17.90;99.90;;;17.32;100.00;97768.78;4956214;28;20051;-64
2022/07/31 03:28:18;;;;;;;3.08;1.60;;;18.00;99.90;;;17.32;100.00;97768.78;4945437;28;20500;-65
2022/07/31 03:30:49;;;;;;;3.92;1.63;;;17.90;99.90;;;17.43;100.00;97763.66;4942235;28;20055;-64
2022/07/31 03:33:21;;;;;;;4.93;2.15;;;17.90;99.90;;;17.20;100.00;97775.69;4939954;28;20063;-64
2022/07/31 03:35:49;;;;;;;6.00;2.05;;;17.90;99.90;;;17.08;100.00;97771.25;4957344;28;20533;-64
2022/07/31 03:38:15;;;;;;;3.38;1.60;;;17.90;99.90;;;16.96;100.00;97770.25;4942859;28;20129;-64
2022/07/31 03:41:03;;;;;;;4.15;2.20;;;17.90;99.90;;;16.92;100.00;97774.88;4943321;28;20073;-64
2022/07/31 03:43:31;;;;;;;4.25;1.85;;;17.80;99.90;;;16.88;100.00;97775.19;4957785;28;20055;-64
2022/07/31 03:46:18;;;;;;;4.03;1.83;;;17.70;99.90;;;16.82;100.00;97775.56;4940201;28;20067;-64
2022/07/31 03:48:45;;;;;;;4.68;1.92;;;17.60;99.90;;;16.50;100.00;97781.91;4955692;28;20504;-64
2022/07/31 03:51:13;;;;;;;4.30;1.95;;;17.60;99.90;;;16.49;100.00;97777.59;4955451;28;20471;-64
2022/07/31 03:53:41;;;;;;;4.43;2.15;;;17.50;99.90;;;16.48;100.00;97783.78;4953571;28;20472;-64
2022/07/31 03:56:10;;;;;;;3.60;2.35;;;17.50;99.90;;;16.50;100.00;97787.13;4955247;28;20174;-64
2022/07/31 03:58:37;;;;;;;6.35;2.20;;;17.40;99.90;;;16.54;100.00;97789.59;4954654;28;20046;-64
2022/07/31 04:01:05;;;;;;;3.17;1.90;;;17.40;99.90;;;16.76;100.00;97789.03;4939013;28;20137;-64
2022/07/31 04:03:38;;;;;;;4.35;2.17;;;17.40;99.90;;;16.74;100.00;97783.91;4956864;28;20121;-64
2022/07/31 04:06:05;;;;;;;4.00;2.30;;;17.40;99.90;;;16.78;100.00;97782.75;4954398;28;20139;-64
2022/07/31 04:08:33;;;;;;;3.08;1.92;;;17.50;99.90;;;16.95;100.00;97776.47;4936182;28;20547;-64
2022/07/31 04:11:00;;;;;;;3.42;2.03;;;17.60;99.90;;;17.11;100.00;97776.31;4942808;29;20098;-64
2022/07/31 04:13:27;;;;;;;4.68;2.20;;;17.60;99.90;;;17.12;100.00;97773.56;4941181;28;20106;-64
2022/07/31 04:15:54;;;;;;;5.65;2.10;;;17.70;99.90;;;17.10;100.00;97770.19;4942558;28;20931;-65
2022/07/31 04:18:21;;;;;;;3.63;2.05;;;17.80;99.90;;;17.14;100.00;97765.59;4943622;28;20120;-64
2022/07/31 04:20:48;;;;;;;4.05;2.15;;;17.80;99.90;;;17.26;100.00;97767.38;4939963;28;20503;-64
2022/07/31 04:23:15;;;;;;;3.90;1.95;;;17.90;99.90;;;17.27;100.00;97765.63;4942906;28;20061;-64
2022/07/31 04:25:42;;;;;;;4.78;2.30;;;17.90;99.90;;;17.24;100.00;97758.81;4940943;28;20154;-65
2022/07/31 04:28:09;;;;;;;5.90;2.20;;;17.90;99.90;;;17.32;100.00;97758.28;4941780;28;20137;-64
2022/07/31 04:30:37;;;;;;;4.15;2.08;;;17.90;99.90;;;17.27;100.00;97766.47;4937360;28;20468;-64
2022/07/31 04:33:04;;;;;;;2.70;1.85;;;18.00;99.90;;;17.23;100.00;97764.16;4939871;28;20096;-64
2022/07/31 04:35:31;;;;;;;4.53;2.40;;;18.00;99.90;;;17.09;100.00;97768.53;4938382;28;20095;-64
2022/07/31 04:37:57;;;;;;;4.15;1.92;;;18.00;99.90;;;17.06;100.00;97775.75;4942646;29;20226;-64
2022/07/31 04:40:26;;;;;;;3.78;1.98;;;18.00;99.90;;;17.18;100.00;97777.56;4939755;29;20055;-64
2022/07/31 04:42:54;;;;;;;4.97;1.92;;;18.00;99.90;;;17.04;100.00;97773.25;4940529;28;20051;-64
2022/07/31 04:45:20;;;;;;;4.70;1.88;;;18.00;99.90;;;17.17;100.00;97773.25;4937937;28;20131;-64
2022/07/31 04:47:48;;;;;;;4.32;2.33;;;18.00;99.90;;;17.21;100.00;97773.91;4940420;29;20046;-64
2022/07/31 04:50:15;;;;;;;3.47;1.85;;;18.00;99.90;;;17.09;100.00;97776.38;4940511;28;20498;-64
2022/07/31 04:52:41;;;;;;;5.43;1.92;;;18.00;99.90;;;17.29;100.00;97777.69;4939421;28;20153;-64
2022/07/31 04:55:09;;;;;;;5.13;2.10;;;18.00;99.90;;;17.27;100.00;97782.22;4943086;28;20047;-64
2022/07/31 04:57:36;;;;;;;4.45;2.47;;;18.10;99.90;;;17.22;100.00;97780.81;4939082;29;20190;-64
2022/07/31 05:00:05;;;;;;;5.82;2.20;;;18.00;99.90;;;17.31;100.00;97781.06;4940332;28;20044;-64
2022/07/31 05:02:32;;;;;;;5.35;2.60;;;18.10;99.90;;;17.26;100.00;97775.25;4942930;28;20083;-64
2022/07/31 05:04:59;;;;;;;5.15;2.63;;;18.10;99.90;;;17.37;100.00;97786.84;4941142;29;20206;-64
2022/07/31 05:07:26;;;;;;;3.47;2.08;;;18.10;99.90;;;17.48;100.00;97781.72;4941475;28;20062;-64
2022/07/31 05:09:56;;;;;;;6.28;2.72;;;18.20;99.90;;;17.53;100.00;97777.81;4942173;29;20765;-64
2022/07/31 05:12:23;;;;;;;3.85;2.00;;;18.20;99.90;;;17.73;100.00;97775.63;4939076;28;20043;-64
2022/07/31 05:14:50;;;;;;;2.80;1.70;;;18.30;99.90;;;17.91;100.00;97770.94;4938236;28;20051;-64
2022/07/31 05:17:16;;;;;;;4.78;1.98;;;18.40;99.90;;;18.00;100.00;97770.31;4940101;29;20051;-64
2022/07/31 05:19:43;;;;;;;4.15;2.03;;;18.40;99.90;;;17.91;100.00;97779.66;4942168;29;20477;-64
2022/07/31 05:22:11;;;;;;;4.97;1.52;;;18.50;99.90;;;18.14;100.00;97770.16;4942744;28;20051;-64
2022/07/31 05:24:38;;;;;;;3.38;1.80;;;18.60;99.90;;;18.21;100.00;97775.81;4943728;28;20166;-64
2022/07/31 05:27:05;;;;;;;2.80;1.40;;;18.70;99.90;;;18.25;100.00;97771.22;4941016;29;20147;-64
2022/07/31 05:29:33;;;;;;;3.38;1.52;;;18.80;99.90;;;18.32;100.00;97765.41;4938789;29;20612;-64
2022/07/31 05:32:00;;;;;;;5.10;1.80;;;18.80;99.90;;;18.14;100.00;97771.97;4942464;28;20138;-64
2022/07/31 05:34:28;;;;;;;3.15;1.65;;;18.90;99.90;;;18.31;100.00;97765.50;4940558;29;20515;-64
2022/07/31 05:37:00;;;;;;;5.15;1.90;;;18.90;99.90;;;18.24;100.00;97766.88;4942102;28;20047;-64
2022/07/31 05:39:28;;;;;;;4.63;1.77;;;18.80;99.90;;;18.37;100.00;97760.66;4944511;29;22186;-64
2022/07/31 05:41:55;;;;;;;3.10;1.35;;;18.90;99.90;;;18.48;100.00;97762.53;4956461;28;20137;-64
2022/07/31 05:44:23;;;;;;;3.08;1.45;;;18.90;99.90;;;18.34;100.00;97758.25;4943442;28;20074;-64
2022/07/31 05:46:51;;;;;;;3.03;1.10;;;19.00;99.90;;;18.60;100.00;97747.66;4943161;28;20063;-64
2022/07/31 05:49:17;;;;;;;3.03;1.20;;;19.20;99.90;;;18.55;100.00;97747.16;4943094;29;20512;-64
2022/07/31 05:51:45;;;;;;;3.78;0.90;;;19.30;99.90;;;18.88;100.00;97743.03;4940997;28;20061;-64
2022/07/31 05:54:13;;;;;;;4.30;1.20;;;19.40;99.90;;;19.13;100.00;97739.41;4940132;29;20040;-64
2022/07/31 05:56:40;;;;;;;4.20;1.00;;;19.60;99.90;;;19.10;100.00;97737.03;4942937;29;20051;-64
2022/07/31 05:59:08;;;;;;;4.60;1.10;;;;;;;19.08;100.00;97747.66;4942554;28;20050;-64
2022/07/31 06:01:36;;;;;;;3.47;1.20;;;19.80;99.90;;;19.15;100.00;97753.28;4940906;28;20113;-64
2022/07/31 06:04:03;;;;;;;3.53;1.02;;;19.90;99.90;;;19.10;100.00;97747.53;4941461;28;20043;-64
2022/07/31 06:06:30;;;;;;;3.35;1.20;;;19.90;99.90;;;19.15;100.00;97748.03;4940281;28;20440;-64
2022/07/31 06:08:57;;;;;;;2.20;0.93;;;20.00;99.90;;;19.39;100.00;97750.63;4955250;28;20709;-64
2022/07/31 06:11:30;;;;;;;4.45;1.02;;;20.10;99.90;;;19.36;100.00;97751.69;4940630;28;20063;-64
2022/07/31 06:13:57;;;;;;;2.28;1.00;;;20.10;99.90;;;19.66;100.00;97758.22;4941139;28;20090;-64
2022/07/31 06:16:24;;;;;;;4.15;0.98;;;20.10;99.90;;;19.70;100.00;97762.28;4945037;28;20048;-64
2022/07/31 06:18:53;;;;;;;2.00;0.90;;;20.20;99.90;;;19.74;100.00;97757.66;4940242;29;20135;-64
2022/07/31 06:21:23;;;;;;;1.63;0.80;;;20.30;99.90;;;19.70;100.00;97761.47;4948285;28;20135;-64
2022/07/31 06:23:56;;;;;;;2.33;0.90;;;20.40;99.90;;;19.74;100.00;97755.84;4943392;29;20056;-64
2022/07/31 06:26:26;;;;;;;5.03;0.90;;;20.40;99.90;;;19.74;100.00;97761.09;4943392;29;20051;-65
2022/07/31 06:28:53;;;;;;;2.25;1.10;;;20.50;99.90;;;19.68;100.00;97761.53;4940963;28;20047;-64
2022/07/31 06:31:21;;;;;;;1.73;0.80;;;20.60;99.90;;;19.77;100.00;97757.41;4946387;28;20504;-64
2022/07/31 06:33:49;;;;;;;5.78;1.10;;;20.80;99.90;;;19.79;100.00;97753.69;4939323;28;20351;-64
2022/07/31 06:36:19;;;;;;;4.22;0.93;;;20.90;99.90;;;19.97;100.00;97758.50;4943364;28;20094;-64
2022/07/31 06:38:46;;;;;;;5.93;0.75;;;20.90;99.90;;;20.16;100.00;97760.50;4943170;29;20067;-64
2022/07/31 06:43:58;;;;;;;2.63;0.88;;;21.10;99.90;;;20.30;100.00;97757.66;4938991;28;20402;-65
2022/07/31 06:46:25;;;;;;;4.00;0.90;;;21.30;99.90;;;20.31;100.00;97758.47;4944423;28;20078;-65
2022/07/31 06:48:52;;;;;;;2.72;0.75;;;21.30;99.90;;;20.38;100.00;97757.03;4943460;28;20044;-65
2022/07/31 06:51:20;;;;;;;2.70;0.90;;;21.40;99.70;;;20.48;100.00;97758.81;4956946;28;20102;-64
2022/07/31 06:53:59;;;;;;;3.80;0.82;;;21.60;99.60;;;20.54;100.00;97754.00;4942129;29;20139;-65
2022/07/31 06:56:28;;;;;;;4.55;0.90;;;21.60;99.40;;;20.47;100.00;97761.56;4940667;29;20082;-65
2022/07/31 06:58:55;;;;;;;4.60;0.73;;;21.60;99.10;;;20.58;100.00;97763.38;4939362;28;20049;-65
2022/07/31 07:01:22;;;;;;;2.03;0.88;;;21.70;99.00;;;20.52;100.00;97754.13;4942736;28;20055;-65
2022/07/31 07:03:49;;;;;;;2.60;1.00;;;21.70;98.80;;;20.67;100.00;97762.63;4941559;28;20061;-65
2022/07/31 07:06:17;;;;;;;3.72;1.08;;;21.70;98.80;;;20.87;100.00;97761.84;4942597;28;20073;-64
2022/07/31 07:08:44;;;;;;;4.68;0.90;;;21.80;98.70;;;21.00;100.00;97753.75;4942629;28;20158;-65
2022/07/31 07:11:11;;;;;;;2.88;0.80;;;21.90;98.70;;;21.18;100.00;97743.47;4939888;29;20055;-64
2022/07/31 07:13:39;;;;;;;3.22;0.85;;;22.00;98.30;;;21.38;100.00;97748.91;4942140;29;20124;-64
2022/07/31 07:16:13;;;;;;;2.95;0.88;;;22.30;98.20;;;21.86;100.00;97745.72;4958571;28;20051;-65
2022/07/31 07:18:41;;;;;;;2.45;1.00;;;22.50;97.80;;;21.86;100.00;97743.09;4957348;28;20149;-65
2022/07/31 07:21:09;;;;;;;3.25;1.10;;;22.70;97.40;;;21.81;100.00;97735.56;4939974;28;20659;-65
2022/07/31 07:23:36;;;;;;;2.97;1.00;;;22.80;97.10;;;22.40;100.00;97736.63;4939783;29;20055;-64
2022/07/31 07:26:04;;;;;;;2.58;0.85;;;23.00;97.10;;;22.19;100.00;97738.47;4939162;29;20150;-65
2022/07/31 07:28:32;;;;;;;5.28;1.20;;;23.20;96.60;;;22.38;100.00;97743.03;4954905;28;20063;-65
2022/07/31 07:30:59;;;;;;;10.82;1.20;;;23.30;96.30;;;22.60;100.00;97731.38;4952899;28;20487;-65
2022/07/31 07:33:26;;;;;;;3.50;1.10;;;23.40;96.00;;;22.75;100.00;97735.28;4955660;28;20053;-65
2022/07/31 07:36:08;;;;;;;2.92;1.02;;;23.50;96.30;;;22.60;100.00;97741.94;4940264;28;20047;-66
2022/07/31 07:38:53;;;;;;;7.07;1.15;;;23.60;94.90;;;22.51;100.00;97727.72;4941949;29;20079;-65
2022/07/31 07:41:23;;;;;;;2.00;1.00;;;23.60;94.60;;;22.46;100.00;97725.50;4938045;29;20083;-64
2022/07/31 07:43:51;;;;;;;4.90;1.00;;;23.50;94.60;;;22.57;100.00;97731.66;4938927;29;20081;-64
2022/07/31 07:46:21;;;;;;;4.28;1.10;;;23.50;94.60;;;22.58;100.00;97726.22;4940596;28;20073;-64
2022/07/31 07:48:49;;;;;;;6.13;1.10;;;23.50;94.40;;;22.88;100.00;97732.38;4942743;28;20043;-65
2022/07/31 07:51:17;;;;;;;2.10;1.00;;;23.70;94.60;;;22.99;100.00;97729.63;4939667;28;20098;-65
2022/07/31 07:53:44;;;;;;;5.30;0.88;;;24.00;94.40;;;22.88;100.00;97735.03;4944888;28;20047;-65
2022/07/31 07:56:11;;;;;;;2.92;0.80;;;24.20;94.00;;;23.33;100.00;97726.50;4938825;29;20043;-64
2022/07/31 07:58:39;;;;;;;1.55;0.70;;;;;;;23.57;100.00;97715.47;4942012;29;20086;-65
2022/07/31 08:01:06;;;;;;;3.28;0.80;;;24.50;93.60;;;24.23;100.00;97719.81;4940652;28;20078;-65
2022/07/31 08:03:33;;;;;;;3.42;0.80;;;24.90;94.00;;;24.58;100.00;97708.47;4941086;28;20118;-65
2022/07/31 08:06:21;;;;;;;2.03;0.90;;;25.20;93.60;;;24.20;100.00;97718.31;4939497;28;20047;-65
2022/07/31 08:08:48;;;;;;;3.07;0.80;;;25.60;92.70;;;24.65;100.00;97721.13;4951601;28;20051;-65
2022/07/31 08:11:15;;;;;;;2.22;0.60;;;25.70;92.60;;;24.79;100.00;97716.16;4940378;29;20556;-64
2022/07/31 08:13:45;;;;;;;3.67;0.85;;;25.70;92.60;;;24.96;100.00;97708.31;4952826;28;20111;-65
2022/07/31 08:16:19;;;;;;;1.40;0.60;;;25.80;92.80;;;25.12;100.00;97702.31;4937436;28;20066;-65
2022/07/31 08:18:47;;;;;;;2.38;0.82;;;26.00;92.80;;;24.81;100.00;97711.53;4937813;28;20064;-65
2022/07/31 08:21:14;;;;;;;4.75;0.70;;;26.10;92.00;;;24.76;100.00;97712.94;4933497;28;20142;-65
2022/07/31 08:23:41;;;;;;;3.03;0.77;;;26.00;91.60;;;24.25;100.00;97717.88;4936709;28;20092;-65
2022/07/31 08:26:08;;;;;;;4.20;0.60;;;25.90;91.60;;;24.61;100.00;97707.34;4938015;29;20047;-65
2022/07/31 08:28:37;;;;;;;1.98;0.80;;;25.80;91.90;;;24.58;100.00;97711.09;4939816;29;20457;-65
2022/07/31 08:31:04;;;;;;;2.72;0.55;;;25.80;91.60;;;24.53;100.00;97702.78;4942805;28;20126;-65
2022/07/31 08:33:31;;;;;;;2.03;0.70;;;25.80;91.80;;;24.78;100.00;97710.97;4950457;28;20134;-65
2022/07/31 08:35:59;;;;;;;3.28;0.55;;;25.90;91.70;;;24.98;100.00;97711.66;4941202;28;20123;-65
2022/07/31 08:38:27;;;;;;;2.88;0.77;;;25.90;91.60;;;24.91;100.00;97718.56;4937088;28;20079;-65
2022/07/31 08:40:54;;;;;;;8.45;0.68;;;25.90;91.40;;;24.50;100.00;97713.69;4951766;28;20055;-65
2022/07/31 08:43:21;;;;;;;2.92;0.68;;;25.90;91.40;;;24.99;100.00;97710.66;4940527;28;20126;-65
2022/07/31 08:46:09;;;;;;;2.60;0.70;;;25.90;91.40;;;24.72;100.00;97707.09;4943714;28;20054;-65
2022/07/31 08:48:40;;;;;;;1.92;0.60;;;26.00;91.20;;;24.39;100.00;97708.56;4953007;28;20137;-65
2022/07/31 08:51:11;;;;;;;4.50;0.63;;;25.90;91.10;;;24.40;100.00;97708.44;4939022;28;20050;-65
2022/07/31 08:53:38;;;;;;;2.22;0.52;;;25.80;91.40;;;24.62;100.00;97714.31;4942106;28;20090;-65
2022/07/31 08:56:08;;;;;;;1.00;0.50;;;25.80;91.50;;;24.83;100.00;97706.03;4958734;28;20051;-65
2022/07/31 08:58:36;;;;;;;4.68;0.77;;;25.90;91.70;;;25.17;100.00;97694.72;4944809;29;20078;-65
2022/07/31 09:01:07;;;;;;;1.73;0.80;;;26.20;91.80;;;24.93;100.00;97701.50;4951903;28;20124;-65
2022/07/31 09:03:35;;;;;;;1.98;0.77;;;26.20;91.40;;;25.94;100.00;97694.91;4957170;28;20145;-65
2022/07/31 09:06:03;;;;;;;3.00;0.60;;;26.60;91.50;;;26.08;100.00;97686.31;4944362;28;20596;-65
2022/07/31 09:08:36;;;;;;;3.55;0.60;;;27.10;91.00;;;26.15;100.00;97678.53;4956933;28;20494;-65
2022/07/31 09:11:12;;;;;;;3.30;0.65;;;27.50;90.80;;;26.55;100.00;97684.97;4943020;28;20178;-65
2022/07/31 09:13:40;;;;;;;2.00;0.70;;;27.60;90.30;;;26.69;100.00;97693.16;4958967;28;20136;-65
2022/07/31 09:16:18;;;;;;;4.32;0.70;;;27.70;90.00;;;27.46;100.00;97687.53;4949759;28;20082;-65
2022/07/31 09:19:04;;;;;;;3.45;0.60;;;28.20;90.20;;;26.66;100.00;97698.81;4959683;28;20181;-65
2022/07/31 09:21:51;;;;;;;2.50;0.55;;;28.10;89.50;;;28.29;100.00;97682.75;4938535;28;20056;-65
2022/07/31 09:24:32;;;;;;;2.92;0.73;;;28.50;90.20;;;28.03;100.00;97685.69;4939258;29;20114;-65
2022/07/31 09:27:08;;;;;;;10.57;0.80;;;28.70;88.70;;;27.72;100.00;97679.28;4942220;29;20090;-66
2022/07/31 09:29:37;;;;;;;3.28;0.60;;;28.90;87.50;;;27.23;100.00;97676.72;4940436;29;20055;-65
2022/07/31 09:32:15;;;;;;;1.40;0.60;;;28.90;86.80;;;26.96;100.00;97683.19;4954716;28;20138;-65
2022/07/31 09:34:43;;;;;;;3.50;0.80;;;28.50;86.10;;;26.31;100.00;97677.75;4942350;28;20492;-65
2022/07/31 09:37:16;;;;;;;2.55;0.73;;;28.30;86.70;;;26.58;100.00;97680.16;4938624;29;20071;-66
2022/07/31 09:39:52;;;;;;;3.28;0.75;;;28.10;86.50;;;26.79;100.00;97676.19;4957646;28;20529;-66
2022/07/31 09:42:21;;;;;;;1.52;0.60;;;28.00;86.50;;;25.83;100.00;97675.53;4958286;28;20102;-66
2022/07/31 09:44:50;;;;;;;6.93;0.90;;;27.80;86.40;;;26.61;100.00;97677.16;4941463;28;20137;-65
2022/07/31 09:47:27;;;;;;;3.70;0.80;;;27.60;87.40;;;26.65;100.00;97665.19;4958973;28;20614;-65
2022/07/31 09:50:00;;;;;;;2.50;0.60;;;27.70;87.80;;;27.33;100.00;97649.88;4936301;29;20091;-66
2022/07/31 09:52:30;;;;;;;3.45;0.82;;;27.70;87.60;;;27.39;100.00;97657.19;4937675;28;20079;-65
2022/07/31 09:55:06;;;;;;;4.10;0.70;;;27.80;87.40;;;27.38;100.00;97682.19;4936337;29;20134;-65
2022/07/31 09:57:54;;;;;;;2.35;0.60;;;28.00;87.00;;;27.61;100.00;97660.97;4941963;28;20063;-65
2022/07/31 10:00:21;;;;;;;6.60;0.60;;;28.20;86.20;;;27.12;100.00;97677.88;4928204;28;20058;-66
2022/07/31 10:02:52;;;;;;;1.95;0.50;;;28.00;85.50;;;27.47;100.00;97659.84;4940708;28;20047;-66
2022/07/31 10:05:24;;;;;;;3.55;0.70;;;28.00;85.80;;;27.78;100.00;97661.78;4942447;28;20134;-65
2022/07/31 10:07:56;;;;;;;2.65;0.60;;;28.10;86.70;;;28.83;100.00;97655.19;4940995;28;20130;-65
2022/07/31 10:10:23;;;;;;;4.15;0.60;;;28.50;86.60;;;28.84;100.00;97663.06;4942258;28;20556;-65
2022/07/31 10:12:54;;;;;;;3.22;0.70;;;29.00;83.40;;;27.60;100.00;97658.47;4954181;28;20066;-65
2022/07/31 10:15:25;;;;;;;3.35;0.70;;;29.20;82.20;;;28.19;100.00;97666.09;4942271;28;20151;-64
2022/07/31 10:17:53;;;;;;;1.92;0.70;;;29.10;82.30;;;28.97;100.00;97647.25;4940875;28;20078;-64
2022/07/31 10:20:22;;;;;;;2.38;0.55;;;;;;;29.59;100.00;97634.63;4956498;28;20131;-64
2022/07/31 10:23:14;;;;;;;5.70;0.57;;;29.40;82.50;;;28.75;100.00;97627.56;4938710;28;20040;-64
2022/07/31 10:25:45;;;;;;;;;;;29.60;82.00;;;27.99;100.00;97641.72;4954511;28;20114;-64
2022/07/31 10:28:21;;;;;;;2.08;0.75;;;29.50;81.60;;;29.11;100.00;97642.97;4953138;28;19929;-64